PWSweather.com
Personal Weather Stations
Station Observations
DL5ARK
SonnebergDE

SonnebergDE

Lat: 50.34904861, Lon: 11.18112087

Elevation: 1214

Station Type: Selfmade

http://www.sumbarg.de

Latest ConditionsUpdated 6:33:37 AM GMT+01:01 Saturday, Jul 21, 2018
Currently Today's Max Today's Min Today's Average
Temperature 66.7°F19.3°C 69.6°F20.9°C 57.9°F14.4°C 62.7°F17.1°C
Dew Point 59.4°F15.2°C 60.2°F15.7°C 55.0°F12.8°C 56.8°F13.8°C
Winds Calm Calm 2.8 mph -4.5 kmh - - 0.2 mph 0.3 kmh
Wind Gusts -- 2.9 mph4.7 kmh - -
Humidity 65% 67% 47% 60%
Pressure 29.81 in1009.5 mb 29.84 in1010.5 mb 29.81 in1009.5 mb -
Hour Temp Dew Point Humidity Winds Wind Gusts Pressure Precip Precip Rate Daily Precip Total
06:33 AM 66.7°F19.3°C 59.4°F15.2°C 65% Calm Calm -- 29.81 in1009.5 mb 0.00 in0.0 mm 0.00 in0.0 mm 0.00 in0.0 mm
06:30 AM 66.8°F19.3°C 59.7°F15.4°C 66% Calm Calm -- 29.81 in1009.5 mb 0.00 in0.0 mm 0.00 in0.0 mm 0.00 in0.0 mm
06:27 AM 66.8°F19.3°C 60.2°F15.7°C 67% Calm Calm -- 29.81 in1009.5 mb 0.00 in0.0 mm 0.00 in0.0 mm 0.00 in0.0 mm
06:21 AM 66.3°F19.1°C 59.4°F15.2°C 66% Calm Calm -- 29.81 in1009.5 mb 0.00 in0.0 mm 0.00 in0.0 mm 0.00 in0.0 mm
06:18 AM 66.1°F18.9°C 59.5°F15.3°C 66% Calm Calm -- 29.81 in1009.5 mb 0.00 in0.0 mm 0.00 in0.0 mm 0.00 in0.0 mm
06:15 AM 65.9°F18.8°C 59.3°F15.2°C 65% Calm Calm -- 29.81 in1009.5 mb 0.00 in0.0 mm 0.00 in0.0 mm 0.00 in0.0 mm
06:12 AM 65.6°F18.7°C 59.7°F15.4°C 67% Calm Calm -- 29.81 in1009.5 mb 0.00 in0.0 mm 0.00 in0.0 mm 0.00 in0.0 mm
06:09 AM 65.5°F18.6°C 59.8°F15.4°C 67% Calm Calm -- 29.81 in1009.5 mb 0.00 in0.0 mm 0.00 in0.0 mm 0.00 in0.0 mm
06:03 AM 64.9°F18.3°C 59.4°F15.2°C 66% Calm Calm -- 29.81 in1009.5 mb 0.00 in0.0 mm 0.00 in0.0 mm 0.00 in0.0 mm
06:00 AM 64.9°F18.3°C 58.8°F14.9°C 65% Calm Calm -- 29.81 in1009.5 mb 0.00 in0.0 mm 0.00 in0.0 mm 0.00 in0.0 mm
05:57 AM 64.5°F18.1°C 59.2°F15.1°C 66% Calm Calm -- 29.81 in1009.5 mb 0.00 in0.0 mm 0.00 in0.0 mm 0.00 in0.0 mm
05:54 AM 64.4°F18.0°C 59.2°F15.1°C 65% Calm Calm -- 29.81 in1009.5 mb 0.00 in0.0 mm 0.00 in0.0 mm 0.00 in0.0 mm
05:51 AM 64.4°F18.0°C 58.9°F14.9°C 65% Calm Calm -- 29.81 in1009.5 mb 0.00 in0.0 mm 0.00 in0.0 mm 0.00 in0.0 mm
05:48 AM 64.3°F17.9°C 59.1°F15.1°C 66% 0.8 mph NNW1.3 kmh NNW 0.8 mph1.3 kmh 29.81 in1009.5 mb 0.00 in0.0 mm 0.00 in0.0 mm 0.00 in0.0 mm
05:45 AM 64.3°F17.9°C 58.8°F14.9°C 66% Calm Calm -- 29.81 in1009.5 mb 0.00 in0.0 mm 0.00 in0.0 mm 0.00 in0.0 mm
05:42 AM 64.1°F17.8°C 58.6°F14.8°C 66% Calm Calm -- 29.81 in1009.5 mb 0.00 in0.0 mm 0.00 in0.0 mm 0.00 in0.0 mm
05:39 AM 63.4°F17.4°C 58.3°F14.6°C 66% Calm Calm -- 29.81 in1009.5 mb 0.00 in0.0 mm 0.00 in0.0 mm 0.00 in0.0 mm
05:36 AM 63.2°F17.3°C 58.1°F14.5°C 67% Calm Calm -- 29.81 in1009.5 mb 0.00 in0.0 mm 0.00 in0.0 mm 0.00 in0.0 mm
05:33 AM 62.4°F16.9°C 57.4°F14.1°C 66% 0.8 mph ESE1.3 kmh ESE 0.8 mph1.3 kmh 29.81 in1009.5 mb 0.00 in0.0 mm 0.00 in0.0 mm 0.00 in0.0 mm
05:30 AM 61.9°F16.6°C 57.3°F14.1°C 66% Calm Calm -- 29.81 in1009.5 mb 0.00 in0.0 mm 0.00 in0.0 mm 0.00 in0.0 mm
05:27 AM 61.6°F16.4°C 56.5°F13.6°C 65% Calm Calm -- 29.81 in1009.5 mb 0.00 in0.0 mm 0.00 in0.0 mm 0.00 in0.0 mm
05:24 AM 61.3°F16.3°C 56.7°F13.7°C 65% Calm Calm -- 29.81 in1009.5 mb 0.00 in0.0 mm 0.00 in0.0 mm 0.00 in0.0 mm
05:21 AM 60.8°F16.0°C 56.5°F13.6°C 66% Calm Calm -- 29.81 in1009.5 mb 0.00 in0.0 mm 0.00 in0.0 mm 0.00 in0.0 mm
05:18 AM 60.1°F15.6°C 55.7°F13.2°C 64% Calm Calm -- 29.81 in1009.5 mb 0.00 in0.0 mm 0.00 in0.0 mm 0.00 in0.0 mm
05:15 AM 59.9°F15.5°C 55.4°F13.0°C 64% Calm Calm -- 29.81 in1009.5 mb 0.00 in0.0 mm 0.00 in0.0 mm 0.00 in0.0 mm
05:09 AM 60.0°F15.6°C 55.3°F12.9°C 63% Calm Calm -- 29.81 in1009.5 mb 0.00 in0.0 mm 0.00 in0.0 mm 0.00 in0.0 mm
05:06 AM 59.3°F15.2°C 55.2°F12.9°C 63% Calm Calm -- 29.81 in1009.5 mb 0.00 in0.0 mm 0.00 in0.0 mm 0.00 in0.0 mm
05:03 AM 59.2°F15.1°C 55.3°F12.9°C 63% Calm Calm -- 29.81 in1009.5 mb 0.00 in0.0 mm 0.00 in0.0 mm 0.00 in0.0 mm
05:00 AM 59.2°F15.1°C 55.7°F13.2°C 64% Calm Calm -- 29.81 in1009.5 mb 0.00 in0.0 mm 0.00 in0.0 mm 0.00 in0.0 mm
04:57 AM 58.9°F14.9°C 55.4°F13.0°C 63% Calm Calm -- 29.82 in1009.8 mb 0.00 in0.0 mm 0.00 in0.0 mm 0.00 in0.0 mm
04:54 AM 59.3°F15.2°C 55.0°F12.8°C 62% Calm Calm -- 29.81 in1009.5 mb 0.00 in0.0 mm 0.00 in0.0 mm 0.00 in0.0 mm
04:51 AM 59.2°F15.1°C 55.1°F12.8°C 62% 0.4 mph ESE0.6 kmh ESE 0.4 mph0.6 kmh 29.82 in1009.8 mb 0.00 in0.0 mm 0.00 in0.0 mm 0.00 in0.0 mm
04:48 AM 59.2°F15.1°C 55.1°F12.8°C 63% 1.2 mph NNW1.9 kmh NNW 1.2 mph1.9 kmh 29.82 in1009.8 mb 0.00 in0.0 mm 0.00 in0.0 mm 0.00 in0.0 mm
04:45 AM 59.1°F15.1°C 55.6°F13.1°C 63% 0.8 mph SE1.3 kmh SE 0.8 mph1.3 kmh 29.82 in1009.8 mb 0.00 in0.0 mm 0.00 in0.0 mm 0.00 in0.0 mm
04:42 AM 59.1°F15.1°C 55.4°F13.0°C 63% 0.4 mph ESE0.6 kmh ESE 0.4 mph0.6 kmh 29.82 in1009.8 mb 0.00 in0.0 mm 0.00 in0.0 mm 0.00 in0.0 mm
04:39 AM 59.2°F15.1°C 55.1°F12.8°C 62% Calm Calm -- 29.82 in1009.8 mb 0.00 in0.0 mm 0.00 in0.0 mm 0.00 in0.0 mm
04:36 AM 59.0°F15.0°C 55.2°F12.9°C 63% Calm Calm -- 29.81 in1009.5 mb 0.00 in0.0 mm 0.00 in0.0 mm 0.00 in0.0 mm
04:33 AM 59.2°F15.1°C 55.3°F12.9°C 63% Calm Calm -- 29.81 in1009.5 mb 0.00 in0.0 mm 0.00 in0.0 mm 0.00 in0.0 mm
04:30 AM 59.2°F15.1°C 55.3°F12.9°C 63% 2.8 mph NNW4.5 kmh NNW 2.9 mph4.7 kmh 29.82 in1009.8 mb 0.00 in0.0 mm 0.00 in0.0 mm 0.00 in0.0 mm
04:27 AM 58.2°F14.6°C 55.1°F12.8°C 62% Calm Calm -- 29.81 in1009.5 mb 0.00 in0.0 mm 0.00 in0.0 mm 0.00 in0.0 mm
04:24 AM 58.4°F14.7°C 55.3°F12.9°C 63% Calm Calm -- 29.81 in1009.5 mb 0.00 in0.0 mm 0.00 in0.0 mm 0.00 in0.0 mm
04:18 AM 58.2°F14.6°C 55.4°F13.0°C 63% 2.4 mph ESE3.9 kmh ESE 2.4 mph3.9 kmh 29.81 in1009.5 mb 0.00 in0.0 mm 0.00 in0.0 mm 0.00 in0.0 mm
04:15 AM 58.0°F14.4°C 55.3°F12.9°C 62% Calm Calm -- 29.81 in1009.5 mb 0.00 in0.0 mm 0.00 in0.0 mm 0.00 in0.0 mm
04:12 AM 57.9°F14.4°C 55.4°F13.0°C 63% Calm Calm -- 29.81 in1009.5 mb 0.00 in0.0 mm 0.00 in0.0 mm 0.00 in0.0 mm
04:09 AM 58.1°F14.5°C 55.6°F13.1°C 63% Calm Calm -- 29.81 in1009.5 mb 0.00 in0.0 mm 0.00 in0.0 mm 0.00 in0.0 mm
04:00 AM 58.6°F14.8°C 55.9°F13.3°C 62% Calm Calm -- 29.82 in1009.8 mb 0.00 in0.0 mm 0.00 in0.0 mm 0.00 in0.0 mm
03:57 AM 58.9°F14.9°C 55.6°F13.1°C 62% Calm Calm -- 29.82 in1009.8 mb 0.00 in0.0 mm 0.00 in0.0 mm 0.00 in0.0 mm
03:54 AM 58.9°F14.9°C 55.6°F13.1°C 62% Calm Calm -- 29.82 in1009.8 mb 0.00 in0.0 mm 0.00 in0.0 mm 0.00 in0.0 mm
03:51 AM 58.9°F14.9°C 55.8°F13.2°C 61% Calm Calm -- 29.82 in1009.8 mb 0.00 in0.0 mm 0.00 in0.0 mm 0.00 in0.0 mm
03:48 AM 59.5°F15.3°C 56.2°F13.4°C 61% Calm Calm -- 29.82 in1009.8 mb 0.00 in0.0 mm 0.00 in0.0 mm 0.00 in0.0 mm
03:45 AM 59.6°F15.3°C 55.8°F13.2°C 61% Calm Calm -- 29.81 in1009.5 mb 0.00 in0.0 mm 0.00 in0.0 mm 0.00 in0.0 mm
03:42 AM 59.9°F15.5°C 56.0°F13.3°C 61% Calm Calm -- 29.82 in1009.8 mb 0.00 in0.0 mm 0.00 in0.0 mm 0.00 in0.0 mm
03:39 AM 60.4°F15.8°C 55.9°F13.3°C 60% Calm Calm -- 29.81 in1009.5 mb 0.00 in0.0 mm 0.00 in0.0 mm 0.00 in0.0 mm
03:36 AM 60.8°F16.0°C 55.7°F13.2°C 60% Calm Calm -- 29.82 in1009.8 mb 0.00 in0.0 mm 0.00 in0.0 mm 0.00 in0.0 mm
03:33 AM 60.8°F16.0°C 55.9°F13.3°C 61% Calm Calm -- 29.82 in1009.8 mb 0.00 in0.0 mm 0.00 in0.0 mm 0.00 in0.0 mm
03:30 AM 60.1°F15.6°C 56.5°F13.6°C 62% Calm Calm -- 29.82 in1009.8 mb 0.00 in0.0 mm 0.00 in0.0 mm 0.00 in0.0 mm
03:27 AM 60.2°F15.7°C 56.6°F13.7°C 62% Calm Calm -- 29.82 in1009.8 mb 0.00 in0.0 mm 0.00 in0.0 mm 0.00 in0.0 mm
03:24 AM 59.6°F15.3°C 57.0°F13.9°C 63% 1.2 mph NE1.9 kmh NE 1.2 mph1.9 kmh 29.82 in1009.8 mb 0.00 in0.0 mm 0.00 in0.0 mm 0.00 in0.0 mm
03:21 AM 61.1°F16.2°C 56.5°F13.6°C 62% Calm Calm -- 29.82 in1009.8 mb 0.00 in0.0 mm 0.00 in0.0 mm 0.00 in0.0 mm
03:18 AM 61.1°F16.2°C 56.7°F13.7°C 62% Calm Calm -- 29.82 in1009.8 mb 0.00 in0.0 mm 0.00 in0.0 mm 0.00 in0.0 mm
03:12 AM 61.1°F16.2°C 56.7°F13.7°C 62% Calm Calm -- 29.82 in1009.8 mb 0.00 in0.0 mm 0.00 in0.0 mm 0.00 in0.0 mm
03:09 AM 61.0°F16.1°C 57.1°F13.9°C 62% Calm Calm -- 29.82 in1009.8 mb 0.00 in0.0 mm 0.00 in0.0 mm 0.00 in0.0 mm
03:06 AM 60.8°F16.0°C 57.5°F14.2°C 63% Calm Calm -- 29.82 in1009.8 mb 0.00 in0.0 mm 0.00 in0.0 mm 0.00 in0.0 mm
03:03 AM 60.7°F15.9°C 56.8°F13.8°C 62% Calm Calm -- 29.82 in1009.8 mb 0.00 in0.0 mm 0.00 in0.0 mm 0.00 in0.0 mm
03:00 AM 60.4°F15.8°C 56.6°F13.7°C 61% Calm Calm -- 29.82 in1009.8 mb 0.00 in0.0 mm 0.00 in0.0 mm 0.00 in0.0 mm
02:57 AM 60.5°F15.8°C 56.7°F13.7°C 61% Calm Calm -- 29.82 in1009.8 mb 0.00 in0.0 mm 0.00 in0.0 mm 0.00 in0.0 mm
02:54 AM 60.5°F15.8°C 56.8°F13.8°C 61% Calm Calm -- 29.82 in1009.8 mb 0.00 in0.0 mm 0.00 in0.0 mm 0.00 in0.0 mm
02:51 AM 60.4°F15.8°C 56.3°F13.5°C 60% Calm Calm -- 29.82 in1009.8 mb 0.00 in0.0 mm 0.00 in0.0 mm 0.00 in0.0 mm
02:48 AM 60.4°F15.8°C 56.4°F13.6°C 60% Calm Calm -- 29.82 in1009.8 mb 0.00 in0.0 mm 0.00 in0.0 mm 0.00 in0.0 mm
02:45 AM 60.2°F15.7°C 56.9°F13.8°C 60% Calm Calm -- 29.82 in1009.8 mb 0.00 in0.0 mm 0.00 in0.0 mm 0.00 in0.0 mm
02:42 AM 60.5°F15.8°C 56.5°F13.6°C 59% Calm Calm -- 29.82 in1009.8 mb 0.00 in0.0 mm 0.00 in0.0 mm 0.00 in0.0 mm
02:39 AM 60.8°F16.0°C 56.5°F13.6°C 59% Calm Calm -- 29.82 in1009.8 mb 0.00 in0.0 mm 0.00 in0.0 mm 0.00 in0.0 mm
02:36 AM 61.6°F16.4°C 56.5°F13.6°C 59% Calm Calm -- 29.81 in1009.5 mb 0.00 in0.0 mm 0.00 in0.0 mm 0.00 in0.0 mm
02:33 AM 61.9°F16.6°C 56.4°F13.6°C 58% Calm Calm -- 29.81 in1009.5 mb 0.00 in0.0 mm 0.00 in0.0 mm 0.00 in0.0 mm
02:30 AM 61.7°F16.5°C 56.4°F13.6°C 58% Calm Calm -- 29.82 in1009.8 mb 0.00 in0.0 mm 0.00 in0.0 mm 0.00 in0.0 mm
02:27 AM 61.5°F16.4°C 56.3°F13.5°C 58% Calm Calm -- 29.82 in1009.8 mb 0.00 in0.0 mm 0.00 in0.0 mm 0.00 in0.0 mm
02:21 AM 61.6°F16.4°C 57.2°F14.0°C 59% Calm Calm -- 29.82 in1009.8 mb 0.00 in0.0 mm 0.00 in0.0 mm 0.00 in0.0 mm
02:18 AM 61.7°F16.5°C 56.7°F13.7°C 58% 2.3 mph NNW3.7 kmh NNW 2.3 mph3.7 kmh 29.82 in1009.8 mb 0.00 in0.0 mm 0.00 in0.0 mm 0.00 in0.0 mm
02:15 AM 61.7°F16.5°C 57.4°F14.1°C 58% Calm Calm -- 29.82 in1009.8 mb 0.00 in0.0 mm 0.00 in0.0 mm 0.00 in0.0 mm
02:12 AM 62.5°F16.9°C 56.7°F13.7°C 57% Calm Calm -- 29.82 in1009.8 mb 0.00 in0.0 mm 0.00 in0.0 mm 0.00 in0.0 mm
02:09 AM 63.2°F17.3°C 57.1°F13.9°C 57% Calm Calm -- 29.82 in1009.8 mb 0.00 in0.0 mm 0.00 in0.0 mm 0.00 in0.0 mm
02:06 AM 63.3°F17.4°C 57.0°F13.9°C 57% Calm Calm -- 29.82 in1009.8 mb 0.00 in0.0 mm 0.00 in0.0 mm 0.00 in0.0 mm
02:03 AM 63.6°F17.6°C 56.8°F13.8°C 56% 0.8 mph WSW1.3 kmh WSW 0.8 mph1.3 kmh 29.82 in1009.8 mb 0.00 in0.0 mm 0.00 in0.0 mm 0.00 in0.0 mm
02:00 AM 63.2°F17.3°C 57.2°F14.0°C 56% 1.2 mph WNW1.9 kmh WNW 1.2 mph1.9 kmh 29.82 in1009.8 mb 0.00 in0.0 mm 0.00 in0.0 mm 0.00 in0.0 mm
01:57 AM 64.0°F17.8°C 56.7°F13.7°C 55% Calm Calm -- 29.82 in1009.8 mb 0.00 in0.0 mm 0.00 in0.0 mm 0.00 in0.0 mm
01:48 AM 64.4°F18.0°C 57.0°F13.9°C 55% Calm Calm -- 29.82 in1009.8 mb 0.00 in0.0 mm 0.00 in0.0 mm 0.00 in0.0 mm
01:45 AM 65.0°F18.3°C 57.1°F13.9°C 55% Calm Calm -- 29.82 in1009.8 mb 0.00 in0.0 mm 0.00 in0.0 mm 0.00 in0.0 mm
01:42 AM 65.3°F18.5°C 57.0°F13.9°C 55% Calm Calm -- 29.82 in1009.8 mb 0.00 in0.0 mm 0.00 in0.0 mm 0.00 in0.0 mm
01:39 AM 65.1°F18.4°C 57.2°F14.0°C 54% Calm Calm -- 29.83 in1010.2 mb 0.00 in0.0 mm 0.00 in0.0 mm 0.00 in0.0 mm
01:33 AM 65.5°F18.6°C 57.4°F14.1°C 55% Calm Calm -- 29.83 in1010.2 mb 0.00 in0.0 mm 0.00 in0.0 mm 0.00 in0.0 mm
01:30 AM 65.6°F18.7°C 57.4°F14.1°C 55% Calm Calm -- 29.83 in1010.2 mb 0.00 in0.0 mm 0.00 in0.0 mm 0.00 in0.0 mm
01:27 AM 65.8°F18.8°C 57.5°F14.2°C 54% Calm Calm -- 29.83 in1010.2 mb 0.00 in0.0 mm 0.00 in0.0 mm 0.00 in0.0 mm
01:24 AM 66.0°F18.9°C 57.5°F14.2°C 54% 0.8 mph W1.3 kmh W 0.8 mph1.3 kmh 29.84 in1010.5 mb 0.00 in0.0 mm 0.00 in0.0 mm 0.00 in0.0 mm
01:21 AM 66.4°F19.1°C 57.2°F14.0°C 53% Calm Calm -- 29.83 in1010.2 mb 0.00 in0.0 mm 0.00 in0.0 mm 0.00 in0.0 mm
01:18 AM 66.2°F19.0°C 57.1°F13.9°C 53% 1.6 mph W2.6 kmh W 1.6 mph2.6 kmh 29.84 in1010.5 mb 0.00 in0.0 mm 0.00 in0.0 mm 0.00 in0.0 mm
01:15 AM 66.2°F19.0°C 57.1°F13.9°C 53% Calm Calm -- 29.83 in1010.2 mb 0.00 in0.0 mm 0.00 in0.0 mm 0.00 in0.0 mm
01:09 AM 66.1°F18.9°C 56.7°F13.7°C 53% 0.8 mph NE1.3 kmh NE 0.8 mph1.3 kmh 29.84 in1010.5 mb 0.00 in0.0 mm 0.00 in0.0 mm 0.00 in0.0 mm
01:06 AM 66.2°F19.0°C 56.5°F13.6°C 52% Calm Calm -- 29.83 in1010.2 mb 0.00 in0.0 mm 0.00 in0.0 mm 0.00 in0.0 mm
01:03 AM 66.7°F19.3°C 56.4°F13.6°C 51% Calm Calm -- 29.83 in1010.2 mb 0.00 in0.0 mm 0.00 in0.0 mm 0.00 in0.0 mm
01:00 AM 66.5°F19.2°C 56.8°F13.8°C 52% Calm Calm -- 29.83 in1010.2 mb 0.00 in0.0 mm 0.00 in0.0 mm 0.00 in0.0 mm
12:57 AM 66.2°F19.0°C 57.2°F14.0°C 52% 1.2 mph SW1.9 kmh SW 1.2 mph1.9 kmh 29.83 in1010.2 mb 0.00 in0.0 mm 0.00 in0.0 mm 0.00 in0.0 mm
12:54 AM 66.4°F19.1°C 57.3°F14.1°C 52% 2.4 mph SW3.9 kmh SW 2.4 mph3.9 kmh 29.83 in1010.2 mb 0.00 in0.0 mm 0.00 in0.0 mm 0.00 in0.0 mm
12:48 AM 66.5°F19.2°C 56.5°F13.6°C 51% Calm Calm -- 29.82 in1009.8 mb 0.00 in0.0 mm 0.00 in0.0 mm 0.00 in0.0 mm
12:45 AM 66.4°F19.1°C 56.7°F13.7°C 52% Calm Calm -- 29.82 in1009.8 mb 0.00 in0.0 mm 0.00 in0.0 mm 0.00 in0.0 mm
12:39 AM 67.1°F19.5°C 56.7°F13.7°C 50% Calm Calm -- 29.83 in1010.2 mb 0.00 in0.0 mm 0.00 in0.0 mm 0.00 in0.0 mm
12:36 AM 67.2°F19.6°C 56.5°F13.6°C 50% Calm Calm -- 29.83 in1010.2 mb 0.00 in0.0 mm 0.00 in0.0 mm 0.00 in0.0 mm
12:33 AM 67.6°F19.8°C 56.6°F13.7°C 50% Calm Calm -- 29.84 in1010.5 mb 0.00 in0.0 mm 0.00 in0.0 mm 0.00 in0.0 mm
12:30 AM 67.8°F19.9°C 56.8°F13.8°C 50% 1.2 mph SW1.9 kmh SW 1.2 mph1.9 kmh 29.84 in1010.5 mb 0.00 in0.0 mm 0.00 in0.0 mm 0.00 in0.0 mm
12:27 AM 68.1°F20.1°C 56.9°F13.8°C 50% 0.4 mph WSW0.6 kmh WSW 0.4 mph0.6 kmh 29.84 in1010.5 mb 0.00 in0.0 mm 0.00 in0.0 mm 0.00 in0.0 mm
12:12 AM 68.3°F20.2°C 56.1°F13.4°C 49% Calm Calm -- 29.84 in1010.5 mb 0.00 in0.0 mm 0.00 in0.0 mm 0.00 in0.0 mm
12:09 AM 68.7°F20.4°C 56.0°F13.3°C 48% 1.6 mph SSW2.6 kmh SSW 1.6 mph2.6 kmh 29.84 in1010.5 mb 0.00 in0.0 mm 0.00 in0.0 mm 0.00 in0.0 mm
12:06 AM 68.5°F20.3°C 56.5°F13.6°C 48% Calm Calm -- 29.84 in1010.5 mb 0.00 in0.0 mm 0.00 in0.0 mm 0.00 in0.0 mm
12:03 AM 69.0°F20.6°C 56.2°F13.4°C 48% Calm Calm -- 29.84 in1010.5 mb 0.00 in0.0 mm 0.00 in0.0 mm 0.00 in0.0 mm
12:00 AM 69.6°F20.9°C 55.3°F12.9°C 47% 1.2 mph SE1.9 kmh SE 1.2 mph1.9 kmh 29.84 in1010.5 mb 0.00 in0.0 mm 0.00 in0.0 mm 0.00 in0.0 mm